Smith Hunter — WDC7849 — position and weather

sailwx.info

Track history (hours):
 
Tides and Currents Weather Stations Pressure Air Temp Water Temp Dewpoint Dewpoint Depression Visibility Wind Speed Wind Dir Waves Ship Positions

Smith Hunter

Owner: Smith Marine Towing, Morgan City, LA. More information available from US FCC via Universal Licensing System and Coast Guard Vessel Documentation Center.

Last reported at 2017-Nov-05 08:52 UTC. Time now 2017-Dec-11 01:47 UTC.
Position N 29°36' W 090°58'.
Warning: this ship's position is 35 days out of date.

Length 28 m; draft 3 m.

Type: Other ship. MMSI: 367077850.

Date/timePositionNaut miles runAvg speedWind from/ knotsBaromVisibWave heightAir tempDewpointWater temp
2017-Nov-05 08:52N 29°36' W 090°58'2 3.9
2017-Nov-05 08:21N 29°34' W 090°57'5 4.2
2017-Nov-05 07:16N 29°32' W 090°52'1 4.3
2017-Nov-05 07:00N 29°32' W 090°51'2 4.4
2017-Nov-05 06:30N 29°32' W 090°48'2 4.3
2017-Nov-05 06:00N 29°32' W 090°46'2 3.8
2017-Nov-05 05:30N 29°34' W 090°44'1 2.6
2017-Nov-05 05:00N 29°34' W 090°43'0 0.2
2017-Nov-05 04:30N 29°34' W 090°43'0 0.1
2017-Nov-05 04:00N 29°34' W 090°43'0 0.0
2017-Nov-05 03:30N 29°34' W 090°43'0 0.0
2017-Nov-05 03:00N 29°34' W 090°43'3 5.5
2017-Nov-05 02:30N 29°32' W 090°46'3 4.5
2017-Nov-05 01:57N 29°32' W 090°49'  
Track history (hours):
 
Tides and Currents Weather Stations Pressure Air Temp Water Temp Dewpoint Dewpoint Depression Visibility Wind Speed Wind Dir Waves Ship Positions

Smith Hunter

Owner: Smith Marine Towing, Morgan City, LA. More information available from US FCC via Universal Licensing System and Coast Guard Vessel Documentation Center.

Last reported at 2017-Nov-05 08:52 UTC. Time now 2017-Dec-11 01:47 UTC.
Position N 29°36' W 090°58'.
Warning: this ship's position is 35 days out of date.

Length 28 m; draft 3 m.

Type: Other ship. MMSI: 367077850.

Date/timePositionNaut miles runAvg speedWind from/ knotsBaromVisibWave heightAir tempDewpointWater temp
2017-Nov-05 08:52N 29°36' W 090°58'2 3.9
2017-Nov-05 08:21N 29°34' W 090°57'5 4.2
2017-Nov-05 07:16N 29°32' W 090°52'1 4.3
2017-Nov-05 07:00N 29°32' W 090°51'2 4.4
2017-Nov-05 06:30N 29°32' W 090°48'2 4.3
2017-Nov-05 06:00N 29°32' W 090°46'2 3.8
2017-Nov-05 05:30N 29°34' W 090°44'1 2.6
2017-Nov-05 05:00N 29°34' W 090°43'0 0.2
2017-Nov-05 04:30N 29°34' W 090°43'0 0.1
2017-Nov-05 04:00N 29°34' W 090°43'0 0.0
2017-Nov-05 03:30N 29°34' W 090°43'0 0.0
2017-Nov-05 03:00N 29°34' W 090°43'3 5.5
2017-Nov-05 02:30N 29°32' W 090°46'3 4.5
2017-Nov-05 01:57N 29°32' W 090°49'  

Dump ship's entire track history